createdAt,value
2022-12-28T00:01:20.099Z,9.82
2022-12-28T00:03:49.224Z,10.80
2022-12-28T00:06:18.390Z,12.35
2022-12-28T00:08:48.003Z,11.80
2022-12-28T00:11:28.314Z,11.95
2022-12-28T00:14:01.261Z,10.05
2022-12-28T00:16:31.760Z,11.15
2022-12-28T00:19:02.182Z,10.60
2022-12-28T00:21:30.726Z,8.80
2022-12-28T00:24:01.541Z,10.27
2022-12-28T00:26:31.424Z,9.32
2022-12-28T00:29:04.769Z,11.40
2022-12-28T00:31:33.667Z,10.07
2022-12-28T00:34:02.070Z,10.88
2022-12-28T00:37:08.484Z,13.25
2022-12-28T00:39:20.136Z,12.13
2022-12-28T00:41:48.410Z,10.95
2022-12-28T00:44:16.576Z,13.13
2022-12-28T00:46:44.799Z,10.43
2022-12-28T00:49:13.004Z,10.30
2022-12-28T00:51:41.190Z,12.70
2022-12-28T00:54:09.402Z,10.07
2022-12-28T00:56:41.120Z,10.57
2022-12-28T00:59:09.395Z,11.82
2022-12-28T01:01:37.884Z,10.68
2022-12-28T01:04:06.624Z,11.50
2022-12-28T01:06:34.794Z,10.13
2022-12-28T01:09:03.119Z,10.32
2022-12-28T01:11:32.582Z,14.98
2022-12-28T01:14:03.770Z,10.27
2022-12-28T01:16:34.770Z,11.77
2022-12-28T01:19:05.468Z,10.00
2022-12-28T01:21:35.816Z,10.93
2022-12-28T01:24:05.936Z,9.10
2022-12-28T01:26:34.174Z,11.90
2022-12-28T01:29:04.180Z,7.72
2022-12-28T01:31:32.385Z,12.95
2022-12-28T01:34:00.824Z,8.73
2022-12-28T01:36:31.753Z,8.95
2022-12-28T01:39:02.799Z,10.77
2022-12-28T01:41:32.352Z,10.47
2022-12-28T01:44:43.395Z,8.35
2022-12-28T01:47:23.238Z,11.43
2022-12-28T01:49:58.171Z,8.80
2022-12-28T01:52:31.039Z,8.40
2022-12-28T01:55:02.985Z,11.18
2022-12-28T02:00:09.417Z,9.80
2022-12-28T02:02:41.451Z,8.73
2022-12-28T02:05:10.797Z,7.75
2022-12-28T02:07:45.417Z,12.38
2022-12-28T02:10:44.613Z,9.82
2022-12-28T02:13:03.210Z,8.80
2022-12-28T02:15:31.521Z,11.23
2022-12-28T02:18:01.430Z,8.93
2022-12-28T02:20:35.283Z,9.93
2022-12-28T02:23:34.425Z,8.95
2022-12-28T02:26:45.896Z,12.57
2022-12-28T02:29:38.546Z,10.43
2022-12-28T02:32:18.664Z,12.10
2022-12-28T02:34:52.446Z,13.80
2022-12-28T02:37:25.460Z,12.43
2022-12-28T02:39:56.753Z,11.95
2022-12-28T02:42:26.977Z,12.90
2022-12-28T02:45:13.997Z,10.65
2022-12-28T02:48:02.311Z,12.63
2022-12-28T02:50:38.924Z,9.43
2022-12-28T02:53:32.652Z,10.60
2022-12-28T02:56:10.665Z,8.75
2022-12-28T02:58:58.148Z,13.27
2022-12-28T03:01:40.873Z,12.77
2022-12-28T03:04:17.785Z,10.68
2022-12-28T03:07:09.729Z,10.50
2022-12-28T03:09:42.363Z,9.02
2022-12-28T03:12:14.382Z,10.65
2022-12-28T03:14:48.720Z,11.23
2022-12-28T03:17:39.034Z,9.32
2022-12-28T03:20:30.305Z,10.23
2022-12-28T03:23:19.072Z,9.90
2022-12-28T03:26:05.841Z,10.27
2022-12-28T03:28:53.658Z,11.45
2022-12-28T03:31:25.394Z,11.43
2022-12-28T03:34:06.796Z,9.27
2022-12-28T03:36:44.494Z,12.00
2022-12-28T03:39:21.204Z,9.57
2022-12-28T03:42:11.239Z,11.30
2022-12-28T03:44:42.074Z,9.68
2022-12-28T03:47:13.033Z,9.82
2022-12-28T03:49:43.204Z,8.85
2022-12-28T03:52:12.342Z,9.85
2022-12-28T03:54:41.562Z,12.57
2022-12-28T03:57:09.762Z,12.80
2022-12-28T03:59:37.943Z,10.40
2022-12-28T04:02:06.186Z,10.75
2022-12-28T04:04:34.443Z,13.07
2022-12-28T04:07:03.997Z,11.60
2022-12-28T04:09:33.373Z,9.73
2022-12-28T04:12:01.551Z,10.27
2022-12-28T04:14:29.704Z,13.48
2022-12-28T04:16:57.874Z,13.00
2022-12-28T04:19:26.033Z,10.63
2022-12-28T04:21:54.195Z,10.63
2022-12-28T04:24:23.782Z,11.70
2022-12-28T04:26:51.927Z,10.25
2022-12-28T04:29:20.105Z,13.02
2022-12-28T04:31:48.317Z,13.27
2022-12-28T04:34:17.187Z,10.25
2022-12-28T04:36:45.376Z,13.27
2022-12-28T04:39:13.948Z,13.70
2022-12-28T04:41:43.474Z,12.30
2022-12-28T04:44:11.714Z,10.90
2022-12-28T04:46:39.928Z,11.60
2022-12-28T04:49:08.140Z,12.68
2022-12-28T04:51:36.331Z,12.40
2022-12-28T04:54:04.755Z,12.73
2022-12-28T04:56:33.135Z,11.48
2022-12-28T04:59:02.726Z,11.73
2022-12-28T05:01:32.027Z,13.07
2022-12-28T05:04:00.553Z,9.85
2022-12-28T05:06:29.719Z,12.23
2022-12-28T05:08:58.516Z,13.07
2022-12-28T05:11:28.918Z,13.27
2022-12-28T05:13:57.291Z,12.45
2022-12-28T05:16:28.867Z,11.95
2022-12-28T05:18:57.539Z,11.82
2022-12-28T05:21:27.368Z,9.82
2022-12-28T05:23:55.977Z,9.82
2022-12-28T05:26:26.498Z,11.98
2022-12-28T05:28:55.565Z,9.77
2022-12-28T05:31:26.219Z,8.98
2022-12-28T05:33:55.299Z,12.70
2022-12-28T05:36:25.829Z,15.20
2022-12-28T05:38:55.569Z,14.55
2022-12-28T05:41:25.780Z,13.07
2022-12-28T05:43:54.892Z,10.20
2022-12-28T05:46:25.371Z,11.07
2022-12-28T05:48:56.284Z,9.70
2022-12-28T05:51:27.347Z,13.55
2022-12-28T05:53:55.847Z,10.83
2022-12-28T05:56:25.551Z,15.63
2022-12-28T05:58:55.636Z,14.25
2022-12-28T06:01:26.076Z,13.30
2022-12-28T06:03:57.469Z,9.77
2022-12-28T06:06:26.254Z,11.13
2022-12-28T06:08:54.754Z,11.30
2022-12-28T06:11:24.874Z,13.25
2022-12-28T06:13:53.770Z,10.02
2022-12-28T06:16:24.505Z,11.95
2022-12-28T06:18:53.290Z,10.27
2022-12-28T06:21:25.542Z,10.55
2022-12-28T06:23:55.097Z,9.73
2022-12-28T06:26:23.475Z,12.55
2022-12-28T06:28:53.511Z,11.70
2022-12-28T06:31:23.870Z,9.25
2022-12-28T06:33:54.097Z,8.35
2022-12-28T06:36:25.101Z,11.32
2022-12-28T06:38:54.916Z,11.52
2022-12-28T06:41:23.970Z,12.23
2022-12-28T06:43:52.267Z,12.23
2022-12-28T06:46:22.496Z,9.63
2022-12-28T06:48:51.633Z,12.85
2022-12-28T06:51:21.383Z,9.55
2022-12-28T06:53:52.314Z,9.25
2022-12-28T06:56:22.339Z,10.13
2022-12-28T06:58:54.464Z,10.45
2022-12-28T07:01:28.249Z,12.00
2022-12-28T07:03:58.461Z,11.63
2022-12-28T07:06:28.306Z,11.52
2022-12-28T07:09:01.922Z,11.57
2022-12-28T07:11:30.437Z,13.07
2022-12-28T07:13:58.748Z,12.40
2022-12-28T07:18:57.220Z,10.88
2022-12-28T07:21:26.837Z,12.52
2022-12-28T07:23:56.377Z,12.10
2022-12-28T07:26:27.684Z,10.55
2022-12-28T07:28:57.233Z,11.38
2022-12-28T07:31:27.667Z,9.65
2022-12-28T07:33:57.767Z,12.27
2022-12-28T07:36:27.287Z,11.55
2022-12-28T07:38:55.837Z,11.55
2022-12-28T07:41:28.130Z,11.13
2022-12-28T07:43:56.724Z,10.85
2022-12-28T07:46:26.806Z,11.50
2022-12-28T07:48:56.950Z,9.85
2022-12-28T07:51:29.188Z,10.60
2022-12-28T07:53:58.985Z,8.80
2022-12-28T07:56:30.293Z,9.68
2022-12-28T07:59:00.255Z,10.00
2022-12-28T08:01:30.266Z,10.68
2022-12-28T08:04:00.722Z,11.18
2022-12-28T08:06:29.984Z,9.40
2022-12-28T08:09:01.069Z,9.13
2022-12-28T08:11:32.908Z,5.63
2022-12-28T08:14:02.328Z,9.13
2022-12-28T08:16:33.089Z,8.43
2022-12-28T08:19:01.971Z,8.52
2022-12-28T08:21:32.039Z,8.98
2022-12-28T08:24:00.965Z,10.55
2022-12-28T08:26:33.101Z,8.80
2022-12-28T08:29:02.758Z,8.75
2022-12-28T08:31:33.374Z,10.05
2022-12-28T08:34:03.127Z,7.78
2022-12-28T08:36:31.658Z,8.32
2022-12-28T08:39:00.872Z,9.85
2022-12-28T08:41:31.304Z,14.43
2022-12-28T08:44:00.163Z,6.25
2022-12-28T08:46:30.309Z,7.78
2022-12-28T08:48:59.961Z,6.72
2022-12-28T08:51:30.744Z,6.82
2022-12-28T08:53:59.262Z,5.75
2022-12-28T08:56:29.693Z,6.90
2022-12-28T08:59:01.160Z,8.35
2022-12-28T09:01:31.153Z,7.38
2022-12-28T09:04:01.320Z,8.18
2022-12-28T09:06:32.808Z,8.02
2022-12-28T09:09:06.522Z,6.05
2022-12-28T09:11:35.892Z,7.25
2022-12-28T09:14:07.517Z,9.63
2022-12-28T09:16:36.912Z,8.88
2022-12-28T09:19:07.716Z,9.60
2022-12-28T09:21:37.571Z,6.68
2022-12-28T09:24:06.705Z,9.00
2022-12-28T09:26:37.654Z,9.50
2022-12-28T09:29:09.578Z,6.55
2022-12-28T09:36:59.918Z,6.90
2022-12-28T09:39:28.300Z,7.75
2022-12-28T09:41:59.606Z,8.48
2022-12-28T09:44:49.956Z,7.63
2022-12-28T09:47:26.023Z,7.10
2022-12-28T09:50:25.064Z,7.82
2022-12-28T09:53:04.208Z,10.30
2022-12-28T09:55:33.797Z,8.05
2022-12-28T09:58:03.345Z,6.80
2022-12-28T10:00:40.520Z,5.75
2022-12-28T10:03:15.000Z,7.22
2022-12-28T10:05:43.268Z,6.78
2022-12-28T10:08:14.700Z,5.68
2022-12-28T10:10:48.590Z,5.38
2022-12-28T10:13:52.911Z,4.43
2022-12-28T10:16:17.895Z,8.02
2022-12-28T10:18:46.437Z,5.70
2022-12-28T10:21:14.964Z,6.05
2022-12-28T10:24:20.722Z,6.13
2022-12-28T10:26:35.669Z,5.20
2022-12-28T10:29:03.836Z,6.57
2022-12-28T10:31:35.010Z,6.63
2022-12-28T10:34:03.818Z,7.03
2022-12-28T10:36:35.717Z,5.30
2022-12-28T10:39:05.380Z,8.13
2022-12-28T10:41:37.335Z,4.57
2022-12-28T10:47:05.100Z,6.15
2022-12-28T10:49:35.512Z,8.38
2022-12-28T10:52:07.924Z,4.93
2022-12-28T10:54:37.842Z,5.75
2022-12-28T10:57:06.088Z,6.38
2022-12-28T10:59:34.433Z,6.25
2022-12-28T11:02:27.762Z,5.88
2022-12-28T11:04:58.780Z,4.60
2022-12-28T11:07:33.085Z,6.45
2022-12-28T11:10:27.499Z,8.80
2022-12-28T11:12:57.657Z,6.22
2022-12-28T11:15:28.529Z,5.82
2022-12-28T11:18:00.413Z,5.78
2022-12-28T11:20:33.325Z,5.57
2022-12-28T11:23:02.476Z,5.35
2022-12-28T11:25:34.444Z,3.85
2022-12-28T11:30:32.091Z,5.32
2022-12-28T11:33:04.937Z,6.20
2022-12-28T11:35:37.275Z,4.38
2022-12-28T11:38:08.698Z,4.50
2022-12-28T11:40:52.506Z,5.63
2022-12-28T11:43:40.672Z,5.85
2022-12-28T11:46:31.704Z,5.03
2022-12-28T11:49:03.496Z,4.28
2022-12-28T11:51:33.664Z,3.38
2022-12-28T11:54:03.438Z,7.03
2022-12-28T11:57:01.209Z,4.50
2022-12-28T11:59:30.593Z,6.18
2022-12-28T12:02:00.095Z,4.38
2022-12-28T12:04:38.638Z,4.28
2022-12-28T12:07:24.669Z,5.80
2022-12-28T12:10:33.920Z,5.97
2022-12-28T12:13:22.123Z,6.93
2022-12-28T12:15:52.048Z,4.10
2022-12-28T12:18:23.640Z,6.05
2022-12-28T12:21:01.701Z,3.65
2022-12-28T12:23:39.404Z,3.60
2022-12-28T12:26:21.813Z,4.45
2022-12-28T12:28:52.021Z,7.40
2022-12-28T12:31:29.100Z,6.43
2022-12-28T12:34:03.799Z,4.80
2022-12-28T12:36:56.714Z,4.88
2022-12-28T12:39:39.616Z,5.97
2022-12-28T12:42:17.780Z,5.60
2022-12-28T12:44:53.769Z,4.38
2022-12-28T12:47:38.983Z,8.70
2022-12-28T12:50:45.263Z,6.75
2022-12-28T12:53:48.003Z,5.68
2022-12-28T12:56:30.650Z,4.00
2022-12-28T13:01:38.687Z,3.65
2022-12-28T13:04:09.807Z,5.03
2022-12-28T13:06:41.642Z,4.17
2022-12-28T13:11:44.722Z,5.57
2022-12-28T13:14:20.826Z,3.80
2022-12-28T13:16:51.292Z,4.38
2022-12-28T13:19:21.755Z,7.18
2022-12-28T13:21:52.159Z,6.43
2022-12-28T13:24:23.839Z,4.35
2022-12-28T13:26:52.319Z,5.35
2022-12-28T13:29:22.070Z,5.15
2022-12-28T13:31:51.456Z,5.70
2022-12-28T13:34:23.463Z,3.65
2022-12-28T13:36:54.401Z,3.42
2022-12-28T13:39:24.963Z,4.90
2022-12-28T13:41:55.256Z,4.97
2022-12-28T13:44:33.298Z,6.88
2022-12-28T13:47:05.576Z,5.65
2022-12-28T13:49:39.866Z,6.55
2022-12-28T13:52:11.809Z,5.70
2022-12-28T13:57:45.312Z,5.18
2022-12-28T14:00:02.196Z,3.10
2022-12-28T14:02:30.668Z,2.63
2022-12-28T14:04:59.147Z,4.18
2022-12-28T14:07:30.897Z,4.18
2022-12-28T14:10:00.914Z,5.32
2022-12-28T14:12:30.090Z,4.10
2022-12-28T14:14:59.859Z,3.83
2022-12-28T14:17:28.700Z,4.28
2022-12-28T14:19:58.537Z,4.05
2022-12-28T14:22:29.910Z,4.22
2022-12-28T14:25:09.371Z,7.00
2022-12-28T14:27:41.263Z,6.07
2022-12-28T14:30:23.320Z,4.43
2022-12-28T14:35:23.353Z,7.57
2022-12-28T14:37:54.527Z,7.20
2022-12-28T14:40:31.299Z,4.35
2022-12-28T14:43:04.970Z,5.95
2022-12-28T14:46:07.225Z,4.40
2022-12-28T14:48:36.310Z,5.20
2022-12-28T14:51:06.794Z,6.55
2022-12-28T14:53:35.118Z,5.45
2022-12-28T14:56:08.160Z,6.75
2022-12-28T14:58:41.669Z,8.48
2022-12-28T15:01:10.540Z,6.07
2022-12-28T15:03:53.035Z,5.63
2022-12-28T15:06:21.574Z,8.05
2022-12-28T15:08:50.944Z,8.88
2022-12-28T15:11:21.721Z,6.40
2022-12-28T15:13:50.901Z,6.10
2022-12-28T15:16:22.874Z,6.53
2022-12-28T15:21:21.600Z,4.28
2022-12-28T15:23:50.473Z,10.35
2022-12-28T15:26:20.562Z,8.40
2022-12-28T15:28:48.868Z,6.00
2022-12-28T15:31:18.916Z,3.10
2022-12-28T15:33:48.127Z,3.90
2022-12-28T15:36:18.396Z,4.43
2022-12-28T15:38:46.791Z,5.07
2022-12-28T15:41:32.460Z,5.28
2022-12-28T15:44:02.022Z,3.45
2022-12-28T15:46:30.327Z,6.93
2022-12-28T15:48:58.597Z,5.30
2022-12-28T15:51:26.741Z,6.38
2022-12-28T15:53:54.895Z,3.55
2022-12-28T15:56:24.741Z,3.90
2022-12-28T15:58:56.903Z,7.00
2022-12-28T16:01:27.998Z,4.65
2022-12-28T16:03:58.246Z,4.40
2022-12-28T16:06:27.478Z,3.78
2022-12-28T16:08:56.657Z,4.20
2022-12-28T16:11:25.757Z,4.32
2022-12-28T16:13:55.770Z,3.10
2022-12-28T16:16:24.550Z,7.00
2022-12-28T16:18:56.478Z,3.75
2022-12-28T16:23:53.539Z,4.45
2022-12-28T16:26:22.678Z,6.38
2022-12-28T16:28:50.922Z,3.97
2022-12-28T16:31:23.722Z,3.33
2022-12-28T16:33:57.792Z,4.50
2022-12-28T16:36:26.718Z,3.45
2022-12-28T16:38:55.430Z,4.90
2022-12-28T16:41:24.379Z,4.90
2022-12-28T16:43:52.702Z,4.70
2022-12-28T16:46:20.870Z,5.10
2022-12-28T16:48:49.040Z,4.10
2022-12-28T16:51:18.594Z,3.97
2022-12-28T16:53:46.783Z,3.72
2022-12-28T16:56:14.992Z,2.63
2022-12-28T16:58:47.386Z,3.55
2022-12-28T17:01:17.858Z,4.72
2022-12-28T17:03:46.084Z,5.63
2022-12-28T17:06:16.389Z,6.53
2022-12-28T17:08:45.986Z,4.95
2022-12-28T17:11:14.762Z,3.33
2022-12-28T17:13:42.951Z,4.53
2022-12-28T17:16:11.275Z,4.30
2022-12-28T17:18:39.821Z,4.30
2022-12-28T17:21:10.479Z,3.80
2022-12-28T17:23:40.406Z,5.25
2022-12-28T17:26:10.409Z,4.15
2022-12-28T17:28:38.679Z,5.40
2022-12-28T17:31:10.037Z,6.03
2022-12-28T17:33:39.954Z,6.63
2022-12-28T17:36:09.306Z,9.35
2022-12-28T17:38:37.474Z,10.13
2022-12-28T17:41:11.011Z,9.13
2022-12-28T17:43:39.633Z,3.53
2022-12-28T17:46:07.922Z,4.55
2022-12-28T17:48:36.102Z,4.63
2022-12-28T17:51:11.089Z,5.90
2022-12-28T17:53:40.373Z,4.53
2022-12-28T17:56:12.691Z,3.08
2022-12-28T17:58:41.532Z,4.88
2022-12-28T18:01:09.916Z,2.55
2022-12-28T18:03:39.055Z,2.88
2022-12-28T18:06:07.597Z,2.65
2022-12-28T18:08:35.786Z,3.75
2022-12-28T18:11:04.000Z,2.92
2022-12-28T18:13:33.572Z,2.70
2022-12-28T18:16:04.854Z,3.65
2022-12-28T18:18:33.560Z,3.63
2022-12-28T18:21:04.344Z,3.78
2022-12-28T18:23:32.534Z,10.45
2022-12-28T18:26:04.247Z,3.25
2022-12-28T18:28:34.975Z,3.38
2022-12-28T18:31:04.300Z,3.45
2022-12-28T18:33:32.893Z,4.50
2022-12-28T18:36:03.603Z,5.28
2022-12-28T18:38:32.939Z,4.93
2022-12-28T18:41:01.256Z,3.65
2022-12-28T18:43:29.449Z,6.00
2022-12-28T18:46:01.239Z,4.60
2022-12-28T18:48:30.335Z,4.18
2022-12-28T18:51:02.807Z,4.80
2022-12-28T18:53:31.800Z,3.35
2022-12-28T18:56:00.810Z,4.45
2022-12-28T18:58:31.185Z,3.60
2022-12-28T19:01:04.641Z,3.00
2022-12-28T19:03:33.423Z,2.58
2022-12-28T19:06:03.852Z,5.03
2022-12-28T19:08:33.089Z,3.22
2022-12-28T19:11:01.742Z,3.55
2022-12-28T19:13:33.273Z,2.30
2022-12-28T19:16:01.630Z,5.50
2022-12-28T19:18:31.396Z,3.17
2022-12-28T19:21:00.607Z,4.30
2022-12-28T19:23:28.812Z,2.83
2022-12-28T19:26:00.062Z,4.38
2022-12-28T19:28:28.580Z,4.82
2022-12-28T19:31:01.196Z,2.58
2022-12-28T19:33:34.126Z,3.92
2022-12-28T19:36:02.430Z,3.30
2022-12-28T19:38:30.611Z,3.67
2022-12-28T19:41:06.105Z,2.42
2022-12-28T19:43:34.298Z,4.25
2022-12-28T19:46:03.781Z,3.72
2022-12-28T19:48:33.715Z,4.82
2022-12-28T19:51:02.337Z,4.97
2022-12-28T19:53:30.585Z,3.67
2022-12-28T19:55:59.637Z,2.83
2022-12-28T19:58:27.801Z,4.30
2022-12-28T20:00:55.976Z,3.35
2022-12-28T20:03:24.275Z,2.90
2022-12-28T20:05:53.949Z,3.03
2022-12-28T20:08:22.143Z,3.95
2022-12-28T20:10:56.809Z,4.00
2022-12-28T20:13:25.003Z,2.97
2022-12-28T20:15:53.215Z,2.70
2022-12-28T20:18:21.406Z,2.13
2022-12-28T20:21:18.570Z,3.20
2022-12-28T20:23:40.013Z,2.40
2022-12-28T20:26:08.330Z,3.10
2022-12-28T20:28:36.720Z,2.75
2022-12-28T20:31:08.830Z,2.72
2022-12-28T20:33:38.201Z,4.18
2022-12-28T20:36:08.418Z,2.45
2022-12-28T20:38:36.608Z,3.45
2022-12-28T20:41:32.473Z,3.53
2022-12-28T20:44:00.511Z,4.40
2022-12-28T20:46:28.912Z,4.05
2022-12-28T20:48:58.439Z,4.35
2022-12-28T20:51:27.046Z,2.75
2022-12-28T20:53:55.289Z,3.42
2022-12-28T20:56:24.901Z,3.00
2022-12-28T20:58:53.068Z,3.28
2022-12-28T21:01:21.729Z,5.03
2022-12-28T21:03:50.182Z,5.07
2022-12-28T21:06:18.480Z,3.17
2022-12-28T21:08:46.677Z,4.00
2022-12-28T21:11:14.851Z,3.40
2022-12-28T21:13:45.232Z,3.58
2022-12-28T21:16:14.620Z,3.22
2022-12-28T21:18:42.956Z,5.18
2022-12-28T21:21:16.200Z,3.63
2022-12-28T21:23:44.624Z,4.75
2022-12-28T21:26:14.923Z,6.07
2022-12-28T21:28:45.218Z,3.83
2022-12-28T21:31:14.050Z,5.32
2022-12-28T21:33:42.659Z,5.25
2022-12-28T21:36:15.514Z,3.92
2022-12-28T21:38:44.670Z,3.47
2022-12-28T21:41:15.120Z,4.25
2022-12-28T21:43:44.745Z,4.35
2022-12-28T21:46:15.161Z,4.75
2022-12-28T21:48:43.905Z,3.45
2022-12-28T21:51:27.632Z,3.80
2022-12-28T21:53:56.398Z,3.28
2022-12-28T21:56:24.741Z,4.55
2022-12-28T21:58:54.435Z,3.70
2022-12-28T22:01:40.121Z,5.18
2022-12-28T22:04:26.279Z,6.22
2022-12-28T22:06:54.450Z,4.20
2022-12-28T22:09:39.854Z,6.20
2022-12-28T22:12:40.119Z,4.50
2022-12-28T22:15:29.741Z,4.60
2022-12-28T22:17:59.472Z,5.45
2022-12-28T22:20:29.491Z,5.75
2022-12-28T22:22:59.684Z,4.53
2022-12-28T22:25:29.485Z,3.95
2022-12-28T22:27:58.317Z,6.68
2022-12-28T22:30:28.630Z,14.93
2022-12-28T22:32:56.863Z,7.72
2022-12-28T22:35:25.309Z,3.33
2022-12-28T22:37:53.821Z,4.45
2022-12-28T22:40:22.472Z,3.67
2022-12-28T22:42:51.105Z,3.80
2022-12-28T22:45:20.983Z,5.53
2022-12-28T22:47:54.096Z,5.63
2022-12-28T22:50:22.731Z,6.90
2022-12-28T22:52:50.873Z,5.13
2022-12-28T22:55:19.254Z,6.18
2022-12-28T22:57:47.451Z,4.10
2022-12-28T23:00:16.339Z,5.70
2022-12-28T23:02:44.722Z,3.30
2022-12-28T23:05:14.503Z,6.30
2022-12-28T23:07:42.679Z,4.57
2022-12-28T23:10:11.417Z,5.28
2022-12-28T23:12:39.602Z,5.43
2022-12-28T23:15:19.056Z,5.15
2022-12-28T23:17:48.077Z,4.57
2022-12-28T23:20:35.160Z,4.75
2022-12-28T23:23:20.705Z,3.03
2022-12-28T23:26:06.112Z,4.25
2022-12-28T23:28:36.167Z,6.20
2022-12-28T23:31:05.200Z,4.70
2022-12-28T23:33:33.376Z,5.18
2022-12-28T23:36:04.888Z,3.60
2022-12-28T23:38:34.388Z,3.50
2022-12-28T23:41:24.739Z,4.18
2022-12-28T23:43:52.938Z,5.35
2022-12-28T23:46:21.151Z,5.18
2022-12-28T23:48:49.384Z,2.90
2022-12-28T23:51:18.962Z,3.35
2022-12-28T23:53:47.132Z,2.95
2022-12-28T23:56:15.379Z,3.30
2022-12-28T23:58:43.574Z,4.22
